Pagina principală
METAR-TAF:

METAR-TAF

Aeroporturi :

Ayacucho, Peru

Latitudine: 13-08S, longitudine: 074-13W, elevație: 2740 m

Observații meteo curente

Raportul a fost făcut în urmă cu 15 de minute, la 10:00 UTC
Vânt 3 kt de la Sud-est, variabil între Est și Sud-vest
Temperatură 10°C
Umiditate 46%
Presiune 1028 hPa
Vizibilitate de 10 km sau mai mult
nu există nori sub 1.500 m și nici cumulonimbus

METAR: SPHO 141000Z 14003KT 100V220 CAVOK 10/M01 Q1028 RMK BIRD HAZARD RWY 02/20 PP000

Ora: 05:15 (10:15 UTC)

Prognoză

Raportul a fost făcut în urmă cu 17 ore și 15 de minute, la 17:00 UTC
Prognoză valabilă de la 13 ora 18 UTC la 14 ora 18 UTC
Vânt 6 kt din direcții variabile
Vizibilitate de 10 km sau mai mult
Nori puțini la o înălțime de 4000 picior

TAF: SPHO 131700Z 1318/1418 VRB06KT 9999 FEW040 TX25/1319Z TN07/1411Z

Observații și prognoze meteo pentru peste 4.000 de aeroporturi (rapoarte METAR și TAF).

Stațiile disponibile sunt reprezentate pe hartă prin puncte galbene și roșii.

Țineți indicatorul mouse-ului pe punctul dorit pentru a vedea denumirea stației.

Apoi, faceți clic pentru a vedea observațiile și prognozele meteorologice.

Pentru a schimba harta: Pentru mărire, faceți clic pe butoanele verzi cu cruce neagră; pentru micșorare, pe butonul verde cu o liniuță; pentru hărți învecinate, pe săgețile verzi.


METAR-TAF: